Buckhart, Illinois
Current Conditions -  °F | °C
As of 1:52 AM on Saturday 01 Nov 2014 (Local Time) from KSPI Reporting Station
Clear Clear  
Wind Chill: 24°   Ceiling: Unl
Heat Index: 32°   Visibility: 10mi
Dew Point: 21°   Wind: 10mph
Humidity: 64%   Direction: 340°NNW
Pressure: 30.4"   Gusts: NA
Location:  39.7312°N, 89.5322°W
Report Text: KSPI 010652Z AUTO 34009KT 10SM CLR 00/M06 A3040 RMK AO2 SLP298 T00001061
Loading
Personal Weather Stations






























Interactive Weather Map
Tropical Storm Tracking
New forecast layout! Learn more

10-Day Weather Forecast

Advertisements
Track Severe Weather on mobile